Oakglen — CYDD — position and weather

sailwx.info

Track history (hours):
 
Tides and Currents Weather Stations Pressure Air Temp Water Temp Dewpoint Dewpoint Depression Visibility Wind Speed Wind Dir Waves Ship Positions

Oakglen

Last reported at 2017-Nov-17 20:49 UTC. Time now 2017-Nov-19 12:11 UTC.
Position N 45°48' W 083°45'.

Length 223 m; draft 10.2 m.

Type: Cargo ship. MMSI: 316013966.

Date/timePositionNaut miles runAvg speedWind from/ knotsBaromVisibWave heightAir tempDewpointWater temp
2017-Nov-17 20:49N 45°48' W 083°45'1013.5
2017-Nov-17 20:03N 45°40' W 083°36'113.5
2017-Nov-17 20:00N 45°39' W 083°36'713.5
2017-Nov-17 19:30N 45°34' W 083°30'713.5
2017-Nov-17 19:00N 45°28' W 083°24'713.5
2017-Nov-17 18:30N 45°23' W 083°19'  
2017-Nov-14 07:50N 45°13' W 074°17'410.4
2017-Nov-14 07:28N 45°14' W 074°12'4 8.9
2017-Nov-14 07:00N 45°13' W 074°06'4 7.9
2017-Nov-14 06:30N 45°14' W 074°01'4 8.2
2017-Nov-14 06:00N 45°17' W 073°57'2 3.6
2017-Nov-14 05:30N 45°18' W 073°56'1 1.3
2017-Nov-14 05:00N 45°19' W 073°55'0 0.7
2017-Nov-14 04:28N 45°19' W 073°55'0 0.8
2017-Nov-14 03:59N 45°20' W 073°55'2 4.3
2017-Nov-14 03:30N 45°21' W 073°52'2 3.8
2017-Nov-14 03:00N 45°22' W 073°50'3 5.0
2017-Nov-14 02:30N 45°24' W 073°48'3 5.0
2017-Nov-14 02:00N 45°24' W 073°44'3 5.4
2017-Nov-14 01:30N 45°25' W 073°40'3 5.3
2017-Nov-14 01:00N 45°24' W 073°37'2 4.2
2017-Nov-14 00:30N 45°24' W 073°34'0 0.7
2017-Nov-14 00:00N 45°24' W 073°33'1 1.8
2017-Nov-13 23:30N 45°24' W 073°32'2 4.7
2017-Nov-13 23:00N 45°26' W 073°30'3 4.9
2017-Nov-13 22:29N 45°29' W 073°31'1 1.3
2017-Nov-13 21:41N 45°30' W 073°31'  
Track history (hours):
 
Tides and Currents Weather Stations Pressure Air Temp Water Temp Dewpoint Dewpoint Depression Visibility Wind Speed Wind Dir Waves Ship Positions

Oakglen

Last reported at 2017-Nov-17 20:49 UTC. Time now 2017-Nov-19 12:11 UTC.
Position N 45°48' W 083°45'.

Length 223 m; draft 10.2 m.

Type: Cargo ship. MMSI: 316013966.

Date/timePositionNaut miles runAvg speedWind from/ knotsBaromVisibWave heightAir tempDewpointWater temp
2017-Nov-17 20:49N 45°48' W 083°45'1013.5
2017-Nov-17 20:03N 45°40' W 083°36'113.5
2017-Nov-17 20:00N 45°39' W 083°36'713.5
2017-Nov-17 19:30N 45°34' W 083°30'713.5
2017-Nov-17 19:00N 45°28' W 083°24'713.5
2017-Nov-17 18:30N 45°23' W 083°19'  
2017-Nov-14 07:50N 45°13' W 074°17'410.4
2017-Nov-14 07:28N 45°14' W 074°12'4 8.9
2017-Nov-14 07:00N 45°13' W 074°06'4 7.9
2017-Nov-14 06:30N 45°14' W 074°01'4 8.2
2017-Nov-14 06:00N 45°17' W 073°57'2 3.6
2017-Nov-14 05:30N 45°18' W 073°56'1 1.3
2017-Nov-14 05:00N 45°19' W 073°55'0 0.7
2017-Nov-14 04:28N 45°19' W 073°55'0 0.8
2017-Nov-14 03:59N 45°20' W 073°55'2 4.3
2017-Nov-14 03:30N 45°21' W 073°52'2 3.8
2017-Nov-14 03:00N 45°22' W 073°50'3 5.0
2017-Nov-14 02:30N 45°24' W 073°48'3 5.0
2017-Nov-14 02:00N 45°24' W 073°44'3 5.4
2017-Nov-14 01:30N 45°25' W 073°40'3 5.3
2017-Nov-14 01:00N 45°24' W 073°37'2 4.2
2017-Nov-14 00:30N 45°24' W 073°34'0 0.7
2017-Nov-14 00:00N 45°24' W 073°33'1 1.8
2017-Nov-13 23:30N 45°24' W 073°32'2 4.7
2017-Nov-13 23:00N 45°26' W 073°30'3 4.9
2017-Nov-13 22:29N 45°29' W 073°31'1 1.3
2017-Nov-13 21:41N 45°30' W 073°31'  

Dump ship's entire track history